createdAt,value
2022-08-07T00:10:31.013Z,0.65
2022-08-07T00:20:34.281Z,0.80
2022-08-07T00:30:36.619Z,0.75
2022-08-07T00:40:40.385Z,0.55
2022-08-07T00:50:50.288Z,0.77
2022-08-07T01:00:54.077Z,0.43
2022-08-07T01:10:56.561Z,0.80
2022-08-07T01:21:22.404Z,0.50
2022-08-07T01:31:42.765Z,0.40
2022-08-07T01:42:01.691Z,0.68
2022-08-07T01:52:10.682Z,0.60
2022-08-07T02:02:33.027Z,0.65
2022-08-07T02:12:36.920Z,0.60
2022-08-07T02:22:41.416Z,0.57
2022-08-07T02:33:04.026Z,0.47
2022-08-07T02:43:07.949Z,0.60
2022-08-07T02:53:11.972Z,0.40
2022-08-07T03:03:14.137Z,0.57
2022-08-07T03:13:24.080Z,0.40
2022-08-07T03:23:33.961Z,0.50
2022-08-07T03:33:50.087Z,0.55
2022-08-07T03:43:56.804Z,0.43
2022-08-07T03:54:33.754Z,0.70
2022-08-07T04:04:20.894Z,0.52
2022-08-07T04:14:37.358Z,0.52
2022-08-07T04:24:41.274Z,0.52
2022-08-07T04:34:42.986Z,0.52
2022-08-07T04:44:54.723Z,0.47
2022-08-07T04:58:11.764Z,0.40
2022-08-07T05:05:53.373Z,0.45
2022-08-07T05:15:58.358Z,0.52
2022-08-07T05:26:11.671Z,0.57
2022-08-07T05:36:22.388Z,0.43
2022-08-07T05:46:26.524Z,0.60
2022-08-07T05:56:31.259Z,0.40
2022-08-07T06:06:34.262Z,0.40
2022-08-07T06:16:36.510Z,0.50
2022-08-07T06:26:41.289Z,0.77
2022-08-07T06:36:42.753Z,0.50
2022-08-07T06:46:53.658Z,0.28
2022-08-07T06:57:06.857Z,0.40
2022-08-07T07:07:10.785Z,0.20
2022-08-07T07:17:28.889Z,0.20
2022-08-07T07:27:55.756Z,0.20
2022-08-07T07:38:02.478Z,0.20
2022-08-07T07:48:04.522Z,0.20
2022-08-07T07:58:12.934Z,0.47
2022-08-07T08:08:33.782Z,0.30
2022-08-07T08:18:35.700Z,0.20
2022-08-07T08:28:43.305Z,0.10
2022-08-07T08:38:46.254Z,0.35
2022-08-07T08:48:47.478Z,0.20
2022-08-07T08:58:54.837Z,0.20
2022-08-07T09:09:00.586Z,0.20
2022-08-07T09:19:51.772Z,0.30
2022-08-07T09:30:05.418Z,0.15
2022-08-07T09:40:29.882Z,0.25
2022-08-07T09:50:51.376Z,0.32
2022-08-07T10:00:59.463Z,0.20
2022-08-07T10:11:59.114Z,0.30
2022-08-07T10:22:14.731Z,0.30
2022-08-07T10:32:51.612Z,0.20
2022-08-07T10:42:59.415Z,0.30
2022-08-07T10:53:11.336Z,0.20
2022-08-07T11:03:19.652Z,0.10
2022-08-07T11:14:46.401Z,0.50
2022-08-07T11:24:02.067Z,0.20
2022-08-07T11:34:20.328Z,0.30
2022-08-07T11:44:32.472Z,0.30
2022-08-07T11:54:54.526Z,0.25
2022-08-07T12:05:01.930Z,0.20
2022-08-07T12:15:25.986Z,0.20
2022-08-07T12:26:05.375Z,0.20
2022-08-07T12:36:18.421Z,0.30
2022-08-07T12:46:46.197Z,0.43
2022-08-07T12:56:51.115Z,0.30
2022-08-07T13:07:02.872Z,0.20
2022-08-07T13:17:21.318Z,0.20
2022-08-07T13:28:10.769Z,0.30
2022-08-07T13:38:16.802Z,0.60
2022-08-07T13:48:27.510Z,0.50
2022-08-07T13:58:56.747Z,0.40
2022-08-07T14:08:58.265Z,0.30
2022-08-07T14:18:59.548Z,0.20
2022-08-07T14:29:10.653Z,0.25
2022-08-07T14:40:15.849Z,0.32
2022-08-07T14:49:56.718Z,0.30
2022-08-07T15:10:26.300Z,0.60
2022-08-07T15:20:35.709Z,0.20
2022-08-07T15:41:23.652Z,0.17
2022-08-07T16:02:01.987Z,0.22
2022-08-07T16:12:13.918Z,0.20
2022-08-07T16:22:54.822Z,0.32
2022-08-07T16:34:02.171Z,0.20
2022-08-07T16:44:05.759Z,0.20
2022-08-07T16:54:33.005Z,0.45
2022-08-07T17:04:58.458Z,0.13
2022-08-07T17:15:03.482Z,0.30
2022-08-07T17:25:27.324Z,0.30
2022-08-07T17:35:59.524Z,0.60
2022-08-07T17:46:08.910Z,0.40
2022-08-07T17:56:28.750Z,0.30
2022-08-07T18:06:38.470Z,0.30
2022-08-07T18:16:57.719Z,0.35
2022-08-07T18:27:08.650Z,0.30
2022-08-07T18:38:55.490Z,0.45
2022-08-07T18:48:01.103Z,0.40
2022-08-07T18:58:22.526Z,0.40
2022-08-07T19:08:23.752Z,0.30
2022-08-07T19:18:34.533Z,0.40
2022-08-07T19:31:05.188Z,0.40
2022-08-07T19:38:58.984Z,0.60
2022-08-07T19:49:03.041Z,0.63
2022-08-07T19:59:06.917Z,0.52
2022-08-07T20:09:46.425Z,0.70
2022-08-07T20:19:49.597Z,0.38
2022-08-07T20:29:58.502Z,0.70
2022-08-07T20:40:05.016Z,0.63
2022-08-07T20:50:23.337Z,0.30
2022-08-07T21:00:42.551Z,0.60
2022-08-07T21:10:44.262Z,0.40
2022-08-07T21:20:47.959Z,0.70
2022-08-07T21:31:00.273Z,0.50
2022-08-07T21:41:01.493Z,0.75
2022-08-07T21:51:02.704Z,0.60
2022-08-07T22:01:14.069Z,0.85
2022-08-07T22:11:17.941Z,0.60
2022-08-07T22:21:20.686Z,0.68
2022-08-07T22:31:56.357Z,0.60
2022-08-07T22:42:16.078Z,0.50
2022-08-07T22:52:36.692Z,0.60
2022-08-07T23:02:47.773Z,0.65
2022-08-07T23:12:58.287Z,0.65
2022-08-07T23:24:04.349Z,0.63
2022-08-07T23:34:34.748Z,0.80
2022-08-07T23:44:34.675Z,0.80
2022-08-07T23:54:46.132Z,1.20
